Ellabell, GA (31308)

10:06 PM EDT on April 18, 2015 (GMT -0400)
Hwy80/119 Bulloch county Creekside Cabin | | Change Station
CLOSE
Current Station
Personal Weather Station
Location: Ellabell, GA
Elevation: 79 ft
Nearby Weather Stations

Elev 79 ft 32.24 °N, 81.50 °W | Updated 3 minutes ago

Partly Cloudy
Partly Cloudy
69.4 °F
Feels Like 69.4 °F
N
0.0
Wind Variable Wind from NNE

Today
High -- | Low -- °F
--% Chance of Precip.
Yesterday
High -- | Low -- °F
Precip. -- in
6:53 AM 7:57 PM
New Moon, 0% visible
Pressure 29.97 in
Visibility 10.0 miles
Clouds Few 4100 ft
Scattered Clouds 12000 ft
Mostly Cloudy 15000 ft
Dew Point 66 °F
Humidity 89%
Rainfall 0.27 in
Snow Depth Not available.
UV 0 out of 12
Pollen 5.70 out of 12
Air Quality Not available.
Flu Activity Sporadic
METAR KLHW 190158Z AUTO 13002KT 10SM FEW041 SCT120 BKN150 21/20 A2996 RMK AO2 SLP148 T02120195

More Conditions Fewer Conditions

Pressure 29.97 in
Visibility 10.0 miles
Clouds Few 4100 ft
Scattered Clouds 12000 ft
Mostly Cloudy 15000 ft
Dew Point 66 °F
Humidity 89%
Rainfall 0.27 in
Snow Depth Not available.
UV 0 out of 12
Pollen 5.70 out of 12
Air Quality Not available.
Flu Activity Sporadic
METAR KLHW 190158Z AUTO 13002KT 10SM FEW041 SCT120 BKN150 21/20 A2996 RMK AO2 SLP148 T02120195

More Conditions Fewer Conditions

10-Day Weather Forecast

Almanac

Astronomy

Apr. 18, 2015 Rise Set
Actual Time
Civil Twilight
Nautical Twilight
Astronomical Twilight
Moon
Length of Visible Light
Length of Day
Tomorrow will be .
, % of the Moon is Illuminated

Today's Extremes

State Highs State Lows

Community

WunderPhotos

Upload Photos

1,814,628 photos uploaded!

WunderBlogs® & News

Nearby

Air Quality

  Air Quality AQ Index Pollutant
Not available.

Snow Depth

Station Depth Elevation

Earthquake Activity

City Distance Mag. Time & Date
Minimum magnitude displayed is 2.5.

Coastal Water Temperatures

Place Temperature

Stations

Nearby Weather Stations

Station Location Temp. Windchill Dew Point Humidity Wind Precip. Elev Updated Type